LFLC/CFE METAR and TAF weather

Enter ICAO airport designator
Station Type Date Time Source
LFLC METAR 2020/04/02 00:30 UTC NOAA

LFLC 020030Z AUTO 02002KT CAVOK 03/M03 Q1014 NOSIG


Station Type Date Time Source
LFLC Decoded METAR 2020/04/02 00:30 UTC NOAA

Clermont-Ferrand, France (LFLC) 45-47N 003-10E 330M
Apr 01, 2020 - 08:30 PM EDT / 2020.04.02 0030 UTC
Wind: from the NNE (020 degrees) at 2 MPH (2 KT):0
Visibility: greater than 7 mile(s):0
Temperature: 37 F (3 C)
Dew Point: 26 F (-3 C)
Relative Humidity: 64%
Pressure (altimeter): 29.94 in. Hg (1014 hPa)
ob: LFLC 020030Z AUTO 02002KT CAVOK 03/M03 Q1014 NOSIG
cycle: 0

Station Type Date Time Source
LFLC TAF 2020/04/01 21:47 UTC NOAA

TAF LFLC 012000Z 0121/0221 VRB02KT CAVOK
TEMPO 0121/0210 BKN050
BECMG 0212/0215 36010KT

Example: see airport list